sensor_id;sensor_type;location;lat;lon;timestamp;P1;durP1;ratioP1;P2;durP2;ratioP2
12334;SDS011;6233;51.560;9.986;2023-06-19T00:01:34;7.27;;;6.67;;
12334;SDS011;6233;51.560;9.986;2023-06-19T00:04:35;7.23;;;6.53;;
12334;SDS011;6233;51.560;9.986;2023-06-19T00:07:38;6.80;;;6.20;;
12334;SDS011;6233;51.560;9.986;2023-06-19T00:10:40;7.10;;;6.40;;
12334;SDS011;6233;51.560;9.986;2023-06-19T00:13:42;7.10;;;6.40;;
12334;SDS011;6233;51.560;9.986;2023-06-19T00:16:44;6.93;;;6.33;;
12334;SDS011;6233;51.560;9.986;2023-06-19T00:19:46;6.90;;;6.30;;
12334;SDS011;6233;51.560;9.986;2023-06-19T00:22:49;6.97;;;6.27;;
12334;SDS011;6233;51.560;9.986;2023-06-19T00:25:53;9.30;;;6.20;;
12334;SDS011;6233;51.560;9.986;2023-06-19T00:28:54;7.17;;;6.47;;
12334;SDS011;6233;51.560;9.986;2023-06-19T00:31:58;7.47;;;6.77;;
12334;SDS011;6233;51.560;9.986;2023-06-19T00:35:01;7.13;;;6.43;;
12334;SDS011;6233;51.560;9.986;2023-06-19T00:38:04;7.10;;;6.13;;
12334;SDS011;6233;51.560;9.986;2023-06-19T00:41:06;6.77;;;6.10;;
12334;SDS011;6233;51.560;9.986;2023-06-19T00:47:45;8.30;;;6.60;;
12334;SDS011;6233;51.560;9.986;2023-06-19T00:50:47;7.47;;;6.57;;
12334;SDS011;6233;51.560;9.986;2023-06-19T00:53:50;6.97;;;6.27;;
12334;SDS011;6233;51.560;9.986;2023-06-19T00:56:53;7.60;;;6.90;;
12334;SDS011;6233;51.560;9.986;2023-06-19T00:59:55;7.47;;;6.67;;
12334;SDS011;6233;51.560;9.986;2023-06-19T01:02:57;7.20;;;6.50;;
12334;SDS011;6233;51.560;9.986;2023-06-19T01:06:00;7.97;;;7.20;;
12334;SDS011;6233;51.560;9.986;2023-06-19T01:09:08;7.23;;;6.53;;
12334;SDS011;6233;51.560;9.986;2023-06-19T01:12:37;7.20;;;6.50;;
12334;SDS011;6233;51.560;9.986;2023-06-19T01:15:38;7.73;;;6.97;;
12334;SDS011;6233;51.560;9.986;2023-06-19T01:18:43;7.07;;;6.43;;
12334;SDS011;6233;51.560;9.986;2023-06-19T01:21:44;7.80;;;7.00;;
12334;SDS011;6233;51.560;9.986;2023-06-19T01:24:47;7.90;;;7.10;;
12334;SDS011;6233;51.560;9.986;2023-06-19T01:27:49;7.77;;;6.97;;
12334;SDS011;6233;51.560;9.986;2023-06-19T01:30:51;6.77;;;6.20;;
12334;SDS011;6233;51.560;9.986;2023-06-19T01:33:56;7.17;;;6.57;;
12334;SDS011;6233;51.560;9.986;2023-06-19T01:37:00;7.80;;;6.50;;
12334;SDS011;6233;51.560;9.986;2023-06-19T01:40:04;6.97;;;6.37;;
12334;SDS011;6233;51.560;9.986;2023-06-19T01:43:10;7.60;;;6.90;;
12334;SDS011;6233;51.560;9.986;2023-06-19T01:46:13;7.03;;;6.43;;
12334;SDS011;6233;51.560;9.986;2023-06-19T01:49:15;7.33;;;6.70;;
12334;SDS011;6233;51.560;9.986;2023-06-19T01:52:17;8.80;;;6.83;;
12334;SDS011;6233;51.560;9.986;2023-06-19T01:55:19;6.83;;;6.23;;
12334;SDS011;6233;51.560;9.986;2023-06-19T01:58:21;7.57;;;6.87;;
12334;SDS011;6233;51.560;9.986;2023-06-19T02:01:23;8.07;;;7.37;;
12334;SDS011;6233;51.560;9.986;2023-06-19T02:04:24;6.73;;;6.13;;
12334;SDS011;6233;51.560;9.986;2023-06-19T02:07:26;7.03;;;6.33;;
12334;SDS011;6233;51.560;9.986;2023-06-19T02:10:28;7.77;;;6.97;;
12334;SDS011;6233;51.560;9.986;2023-06-19T02:13:30;7.10;;;6.50;;
12334;SDS011;6233;51.560;9.986;2023-06-19T02:16:31;7.57;;;6.83;;
12334;SDS011;6233;51.560;9.986;2023-06-19T02:19:33;7.70;;;7.00;;
12334;SDS011;6233;51.560;9.986;2023-06-19T02:22:35;7.70;;;6.90;;
12334;SDS011;6233;51.560;9.986;2023-06-19T02:25:37;7.13;;;6.53;;
12334;SDS011;6233;51.560;9.986;2023-06-19T02:28:38;7.27;;;6.67;;
12334;SDS011;6233;51.560;9.986;2023-06-19T02:31:40;7.20;;;6.30;;
12334;SDS011;6233;51.560;9.986;2023-06-19T02:34:44;7.63;;;6.97;;
12334;SDS011;6233;51.560;9.986;2023-06-19T02:37:46;7.57;;;6.87;;
12334;SDS011;6233;51.560;9.986;2023-06-19T02:40:48;6.77;;;6.17;;
12334;SDS011;6233;51.560;9.986;2023-06-19T02:43:50;7.23;;;6.57;;
12334;SDS011;6233;51.560;9.986;2023-06-19T02:46:52;6.90;;;6.30;;
12334;SDS011;6233;51.560;9.986;2023-06-19T02:49:53;7.10;;;6.40;;
12334;SDS011;6233;51.560;9.986;2023-06-19T02:52:55;7.57;;;6.87;;
12334;SDS011;6233;51.560;9.986;2023-06-19T02:55:57;7.17;;;6.57;;
12334;SDS011;6233;51.560;9.986;2023-06-19T02:58:58;8.60;;;7.47;;
12334;SDS011;6233;51.560;9.986;2023-06-19T03:02:00;8.17;;;7.37;;
12334;SDS011;6233;51.560;9.986;2023-06-19T03:05:02;7.13;;;6.43;;
12334;SDS011;6233;51.560;9.986;2023-06-19T03:08:04;7.53;;;6.87;;
12334;SDS011;6233;51.560;9.986;2023-06-19T03:11:06;7.70;;;7.00;;
12334;SDS011;6233;51.560;9.986;2023-06-19T03:14:08;7.83;;;7.13;;
12334;SDS011;6233;51.560;9.986;2023-06-19T03:17:10;7.80;;;7.10;;
12334;SDS011;6233;51.560;9.986;2023-06-19T03:20:13;8.03;;;7.33;;
12334;SDS011;6233;51.560;9.986;2023-06-19T03:23:15;8.33;;;7.10;;
12334;SDS011;6233;51.560;9.986;2023-06-19T03:26:18;7.37;;;6.77;;
12334;SDS011;6233;51.560;9.986;2023-06-19T03:29:20;8.07;;;7.30;;
12334;SDS011;6233;51.560;9.986;2023-06-19T03:32:22;7.33;;;6.63;;
12334;SDS011;6233;51.560;9.986;2023-06-19T03:35:24;7.67;;;7.07;;
12334;SDS011;6233;51.560;9.986;2023-06-19T03:38:26;8.10;;;7.30;;
12334;SDS011;6233;51.560;9.986;2023-06-19T03:41:27;7.10;;;6.50;;
12334;SDS011;6233;51.560;9.986;2023-06-19T03:44:29;7.70;;;7.03;;
12334;SDS011;6233;51.560;9.986;2023-06-19T03:47:31;8.47;;;7.60;;
12334;SDS011;6233;51.560;9.986;2023-06-19T03:50:33;8.17;;;6.23;;
12334;SDS011;6233;51.560;9.986;2023-06-19T03:53:35;7.50;;;6.80;;
12334;SDS011;6233;51.560;9.986;2023-06-19T03:56:37;7.90;;;7.10;;
12334;SDS011;6233;51.560;9.986;2023-06-19T03:59:39;7.60;;;6.90;;
12334;SDS011;6233;51.560;9.986;2023-06-19T04:02:41;7.90;;;7.20;;
12334;SDS011;6233;51.560;9.986;2023-06-19T04:05:43;7.83;;;7.13;;
12334;SDS011;6233;51.560;9.986;2023-06-19T04:08:44;7.97;;;7.27;;
12334;SDS011;6233;51.560;9.986;2023-06-19T04:11:46;8.33;;;7.43;;
12334;SDS011;6233;51.560;9.986;2023-06-19T04:14:48;8.83;;;8.00;;
12334;SDS011;6233;51.560;9.986;2023-06-19T04:17:50;7.20;;;6.53;;
12334;SDS011;6233;51.560;9.986;2023-06-19T04:20:52;7.87;;;7.07;;
12334;SDS011;6233;51.560;9.986;2023-06-19T04:23:53;7.23;;;6.53;;
12334;SDS011;6233;51.560;9.986;2023-06-19T04:26:55;8.10;;;7.30;;
12334;SDS011;6233;51.560;9.986;2023-06-19T04:29:57;7.57;;;6.87;;
12334;SDS011;6233;51.560;9.986;2023-06-19T04:32:59;7.40;;;6.80;;
12334;SDS011;6233;51.560;9.986;2023-06-19T04:36:00;8.20;;;7.50;;
12334;SDS011;6233;51.560;9.986;2023-06-19T04:39:02;6.97;;;6.37;;
12334;SDS011;6233;51.560;9.986;2023-06-19T04:42:04;8.60;;;7.50;;
12334;SDS011;6233;51.560;9.986;2023-06-19T04:45:07;7.87;;;7.17;;
12334;SDS011;6233;51.560;9.986;2023-06-19T04:48:09;7.50;;;6.80;;
12334;SDS011;6233;51.560;9.986;2023-06-19T04:51:11;7.43;;;6.73;;
12334;SDS011;6233;51.560;9.986;2023-06-19T04:54:12;8.33;;;7.53;;
12334;SDS011;6233;51.560;9.986;2023-06-19T04:57:14;7.53;;;6.77;;
12334;SDS011;6233;51.560;9.986;2023-06-19T05:00:17;7.70;;;7.00;;
12334;SDS011;6233;51.560;9.986;2023-06-19T05:03:21;7.50;;;6.73;;
12334;SDS011;6233;51.560;9.986;2023-06-19T05:06:23;8.07;;;7.30;;
12334;SDS011;6233;51.560;9.986;2023-06-19T05:09:25;7.80;;;7.10;;
12334;SDS011;6233;51.560;9.986;2023-06-19T05:12:27;8.40;;;7.43;;
12334;SDS011;6233;51.560;9.986;2023-06-19T05:15:29;7.60;;;6.90;;
12334;SDS011;6233;51.560;9.986;2023-06-19T05:18:30;7.20;;;6.53;;
12334;SDS011;6233;51.560;9.986;2023-06-19T05:21:32;7.50;;;6.90;;
12334;SDS011;6233;51.560;9.986;2023-06-19T05:24:34;7.90;;;7.10;;
12334;SDS011;6233;51.560;9.986;2023-06-19T05:27:36;8.53;;;7.17;;
12334;SDS011;6233;51.560;9.986;2023-06-19T05:30:38;8.30;;;7.60;;
12334;SDS011;6233;51.560;9.986;2023-06-19T05:33:40;7.80;;;7.00;;
12334;SDS011;6233;51.560;9.986;2023-06-19T05:36:42;7.37;;;6.63;;
12334;SDS011;6233;51.560;9.986;2023-06-19T05:39:48;8.20;;;7.40;;
12334;SDS011;6233;51.560;9.986;2023-06-19T05:42:50;7.83;;;7.10;;
12334;SDS011;6233;51.560;9.986;2023-06-19T05:45:54;7.57;;;6.77;;
12334;SDS011;6233;51.560;9.986;2023-06-19T05:49:00;7.73;;;6.97;;
12334;SDS011;6233;51.560;9.986;2023-06-19T05:52:02;7.50;;;6.80;;
12334;SDS011;6233;51.560;9.986;2023-06-19T05:55:10;7.37;;;6.70;;
12334;SDS011;6233;51.560;9.986;2023-06-19T05:59:32;8.67;;;7.17;;
12334;SDS011;6233;51.560;9.986;2023-06-19T06:02:34;7.73;;;6.93;;
12334;SDS011;6233;51.560;9.986;2023-06-19T06:05:35;8.10;;;7.30;;
12334;SDS011;6233;51.560;9.986;2023-06-19T06:12:53;9.13;;;7.43;;
12334;SDS011;6233;51.560;9.986;2023-06-19T06:15:55;7.40;;;6.80;;
12334;SDS011;6233;51.560;9.986;2023-06-19T06:18:57;8.40;;;7.40;;
12334;SDS011;6233;51.560;9.986;2023-06-19T06:21:59;8.67;;;7.87;;
12334;SDS011;6233;51.560;9.986;2023-06-19T06:25:01;9.17;;;7.40;;
12334;SDS011;6233;51.560;9.986;2023-06-19T06:28:03;7.93;;;7.20;;
12334;SDS011;6233;51.560;9.986;2023-06-19T06:31:05;8.57;;;7.77;;
12334;SDS011;6233;51.560;9.986;2023-06-19T06:34:07;8.23;;;7.43;;
12334;SDS011;6233;51.560;9.986;2023-06-19T06:37:09;7.83;;;6.93;;
12334;SDS011;6233;51.560;9.986;2023-06-19T06:40:27;8.87;;;7.97;;
12334;SDS011;6233;51.560;9.986;2023-06-19T06:43:29;8.03;;;7.23;;
12334;SDS011;6233;51.560;9.986;2023-06-19T06:46:30;7.40;;;6.70;;
12334;SDS011;6233;51.560;9.986;2023-06-19T06:49:32;8.07;;;7.37;;
12334;SDS011;6233;51.560;9.986;2023-06-19T06:52:34;8.13;;;7.43;;
12334;SDS011;6233;51.560;9.986;2023-06-19T06:55:35;7.87;;;7.10;;
12334;SDS011;6233;51.560;9.986;2023-06-19T06:58:37;7.80;;;7.00;;
12334;SDS011;6233;51.560;9.986;2023-06-19T07:01:40;8.00;;;7.27;;
12334;SDS011;6233;51.560;9.986;2023-06-19T07:04:43;7.70;;;7.00;;
12334;SDS011;6233;51.560;9.986;2023-06-19T07:07:45;7.73;;;7.03;;
12334;SDS011;6233;51.560;9.986;2023-06-19T07:10:47;7.57;;;6.87;;
12334;SDS011;6233;51.560;9.986;2023-06-19T07:13:52;7.63;;;7.00;;
12334;SDS011;6233;51.560;9.986;2023-06-19T07:16:53;8.47;;;7.67;;
12334;SDS011;6233;51.560;9.986;2023-06-19T07:19:55;8.77;;;7.80;;
12334;SDS011;6233;51.560;9.986;2023-06-19T07:22:57;8.67;;;7.93;;
12334;SDS011;6233;51.560;9.986;2023-06-19T07:25:59;8.03;;;7.27;;
12334;SDS011;6233;51.560;9.986;2023-06-19T07:29:01;8.70;;;7.90;;
12334;SDS011;6233;51.560;9.986;2023-06-19T07:32:03;8.17;;;7.47;;
12334;SDS011;6233;51.560;9.986;2023-06-19T07:35:05;8.67;;;7.77;;
12334;SDS011;6233;51.560;9.986;2023-06-19T07:38:08;8.80;;;8.00;;
12334;SDS011;6233;51.560;9.986;2023-06-19T07:41:10;8.73;;;7.83;;
12334;SDS011;6233;51.560;9.986;2023-06-19T07:44:12;8.93;;;8.03;;
12334;SDS011;6233;51.560;9.986;2023-06-19T07:47:14;8.83;;;8.03;;
12334;SDS011;6233;51.560;9.986;2023-06-19T07:50:19;8.97;;;8.07;;
12334;SDS011;6233;51.560;9.986;2023-06-19T07:53:20;9.37;;;8.47;;
12334;SDS011;6233;51.560;9.986;2023-06-19T07:56:22;8.97;;;8.07;;
12334;SDS011;6233;51.560;9.986;2023-06-19T07:59:24;10.30;;;9.30;;
12334;SDS011;6233;51.560;9.986;2023-06-19T08:02:26;11.30;;;10.30;;
12334;SDS011;6233;51.560;9.986;2023-06-19T08:05:29;9.20;;;8.40;;
12334;SDS011;6233;51.560;9.986;2023-06-19T08:08:30;10.67;;;9.03;;
12334;SDS011;6233;51.560;9.986;2023-06-19T08:11:32;9.30;;;8.50;;
12334;SDS011;6233;51.560;9.986;2023-06-19T08:14:34;9.13;;;8.30;;
12334;SDS011;6233;51.560;9.986;2023-06-19T08:17:36;10.73;;;8.73;;
12334;SDS011;6233;51.560;9.986;2023-06-19T08:20:37;10.83;;;9.73;;
12334;SDS011;6233;51.560;9.986;2023-06-19T08:23:39;9.63;;;8.77;;
12334;SDS011;6233;51.560;9.986;2023-06-19T08:26:44;9.17;;;8.30;;
12334;SDS011;6233;51.560;9.986;2023-06-19T08:29:46;9.47;;;8.57;;
12334;SDS011;6233;51.560;9.986;2023-06-19T08:32:48;8.53;;;7.83;;
12334;SDS011;6233;51.560;9.986;2023-06-19T08:35:51;8.93;;;8.23;;
12334;SDS011;6233;51.560;9.986;2023-06-19T08:38:53;11.87;;;10.87;;
12334;SDS011;6233;51.560;9.986;2023-06-19T08:41:55;8.80;;;8.10;;
12334;SDS011;6233;51.560;9.986;2023-06-19T08:44:57;8.80;;;8.10;;
12334;SDS011;6233;51.560;9.986;2023-06-19T08:51:29;9.68;;;8.60;;
12334;SDS011;6233;51.560;9.986;2023-06-19T08:54:33;8.85;;;8.15;;
12334;SDS011;6233;51.560;9.986;2023-06-19T08:57:38;9.27;;;7.88;;
12334;SDS011;6233;51.560;9.986;2023-06-19T09:00:40;8.23;;;7.53;;
12334;SDS011;6233;51.560;9.986;2023-06-19T09:03:48;8.95;;;8.25;;
12334;SDS011;6233;51.560;9.986;2023-06-19T09:07:03;8.43;;;7.65;;
12334;SDS011;6233;51.560;9.986;2023-06-19T09:13:18;9.27;;;8.48;;
12334;SDS011;6233;51.560;9.986;2023-06-19T09:16:20;9.43;;;8.50;;
12334;SDS011;6233;51.560;9.986;2023-06-19T09:19:21;8.57;;;7.78;;
12334;SDS011;6233;51.560;9.986;2023-06-19T09:22:23;8.63;;;7.93;;
12334;SDS011;6233;51.560;9.986;2023-06-19T09:25:31;9.15;;;8.40;;
12334;SDS011;6233;51.560;9.986;2023-06-19T09:28:33;8.93;;;8.23;;
12334;SDS011;6233;51.560;9.986;2023-06-19T09:31:38;9.63;;;8.80;;
12334;SDS011;6233;51.560;9.986;2023-06-19T09:34:42;11.07;;;7.80;;
12334;SDS011;6233;51.560;9.986;2023-06-19T09:37:44;9.30;;;8.40;;
12334;SDS011;6233;51.560;9.986;2023-06-19T09:40:47;8.73;;;8.02;;
12334;SDS011;6233;51.560;9.986;2023-06-19T09:43:49;9.00;;;8.20;;
12334;SDS011;6233;51.560;9.986;2023-06-19T09:46:56;9.27;;;8.52;;
12334;SDS011;6233;51.560;9.986;2023-06-19T09:53:28;8.77;;;8.07;;
12334;SDS011;6233;51.560;9.986;2023-06-19T09:56:31;8.80;;;8.00;;
12334;SDS011;6233;51.560;9.986;2023-06-19T09:59:35;8.68;;;7.90;;
12334;SDS011;6233;51.560;9.986;2023-06-19T10:02:39;8.25;;;7.45;;
12334;SDS011;6233;51.560;9.986;2023-06-19T10:05:45;8.38;;;7.57;;
12334;SDS011;6233;51.560;9.986;2023-06-19T10:08:47;8.82;;;8.00;;
12334;SDS011;6233;51.560;9.986;2023-06-19T10:14:52;8.02;;;7.28;;
12334;SDS011;6233;51.560;9.986;2023-06-19T10:18:04;8.43;;;7.72;;
12334;SDS011;6233;51.560;9.986;2023-06-19T10:21:15;7.60;;;6.97;;
12334;SDS011;6233;51.560;9.986;2023-06-19T10:24:18;8.05;;;7.35;;
12334;SDS011;6233;51.560;9.986;2023-06-19T10:27:22;8.15;;;7.47;;
12334;SDS011;6233;51.560;9.986;2023-06-19T10:30:25;8.38;;;7.68;;
12334;SDS011;6233;51.560;9.986;2023-06-19T10:33:31;8.25;;;7.45;;
12334;SDS011;6233;51.560;9.986;2023-06-19T10:36:34;8.43;;;7.38;;
12334;SDS011;6233;51.560;9.986;2023-06-19T10:39:36;8.23;;;7.53;;
12334;SDS011;6233;51.560;9.986;2023-06-19T10:42:38;8.30;;;7.60;;
12334;SDS011;6233;51.560;9.986;2023-06-19T10:45:47;8.50;;;7.70;;
12334;SDS011;6233;51.560;9.986;2023-06-19T10:48:49;8.82;;;8.02;;
12334;SDS011;6233;51.560;9.986;2023-06-19T10:51:52;8.23;;;7.63;;
12334;SDS011;6233;51.560;9.986;2023-06-19T10:55:00;8.93;;;8.00;;
12334;SDS011;6233;51.560;9.986;2023-06-19T10:58:01;8.90;;;8.13;;
12334;SDS011;6233;51.560;9.986;2023-06-19T11:01:03;9.63;;;8.70;;
12334;SDS011;6233;51.560;9.986;2023-06-19T11:04:05;8.83;;;8.07;;
12334;SDS011;6233;51.560;9.986;2023-06-19T11:07:08;9.60;;;8.80;;
12334;SDS011;6233;51.560;9.986;2023-06-19T11:10:18;9.27;;;8.57;;
12334;SDS011;6233;51.560;9.986;2023-06-19T11:13:21;8.90;;;8.10;;
12334;SDS011;6233;51.560;9.986;2023-06-19T11:16:23;8.50;;;7.70;;
12334;SDS011;6233;51.560;9.986;2023-06-19T11:19:29;9.27;;;8.53;;
12334;SDS011;6233;51.560;9.986;2023-06-19T11:22:36;9.57;;;8.77;;
12334;SDS011;6233;51.560;9.986;2023-06-19T11:25:42;8.40;;;7.60;;
12334;SDS011;6233;51.560;9.986;2023-06-19T11:28:47;9.80;;;9.00;;
12334;SDS011;6233;51.560;9.986;2023-06-19T11:31:49;8.65;;;7.95;;
12334;SDS011;6233;51.560;9.986;2023-06-19T11:34:53;9.53;;;8.73;;
12334;SDS011;6233;51.560;9.986;2023-06-19T11:37:58;12.67;;;8.60;;
12334;SDS011;6233;51.560;9.986;2023-06-19T11:41:01;9.63;;;8.87;;
12334;SDS011;6233;51.560;9.986;2023-06-19T11:44:04;9.23;;;8.33;;
12334;SDS011;6233;51.560;9.986;2023-06-19T11:47:07;9.00;;;8.30;;
12334;SDS011;6233;51.560;9.986;2023-06-19T11:50:12;8.90;;;8.00;;
12334;SDS011;6233;51.560;9.986;2023-06-19T11:53:16;8.90;;;8.20;;
12334;SDS011;6233;51.560;9.986;2023-06-19T11:56:18;9.93;;;9.13;;
12334;SDS011;6233;51.560;9.986;2023-06-19T11:59:20;9.50;;;8.50;;
12334;SDS011;6233;51.560;9.986;2023-06-19T12:02:22;8.70;;;7.90;;
12334;SDS011;6233;51.560;9.986;2023-06-19T12:05:24;9.47;;;8.67;;
12334;SDS011;6233;51.560;9.986;2023-06-19T12:08:25;8.97;;;8.27;;
12334;SDS011;6233;51.560;9.986;2023-06-19T12:11:27;10.10;;;9.20;;
12334;SDS011;6233;51.560;9.986;2023-06-19T12:14:29;9.07;;;8.37;;
12334;SDS011;6233;51.560;9.986;2023-06-19T12:17:31;10.40;;;9.37;;
12334;SDS011;6233;51.560;9.986;2023-06-19T12:20:32;10.30;;;9.30;;
12334;SDS011;6233;51.560;9.986;2023-06-19T12:23:34;9.07;;;8.37;;
12334;SDS011;6233;51.560;9.986;2023-06-19T12:26:36;9.10;;;8.30;;
12334;SDS011;6233;51.560;9.986;2023-06-19T12:29:39;9.07;;;8.37;;
12334;SDS011;6233;51.560;9.986;2023-06-19T12:32:40;9.20;;;8.40;;
12334;SDS011;6233;51.560;9.986;2023-06-19T12:35:43;9.60;;;8.70;;
12334;SDS011;6233;51.560;9.986;2023-06-19T12:38:45;9.60;;;8.60;;
12334;SDS011;6233;51.560;9.986;2023-06-19T12:41:49;9.73;;;8.83;;
12334;SDS011;6233;51.560;9.986;2023-06-19T12:44:50;9.47;;;8.57;;
12334;SDS011;6233;51.560;9.986;2023-06-19T12:47:52;9.00;;;8.20;;
12334;SDS011;6233;51.560;9.986;2023-06-19T12:50:56;9.37;;;8.47;;
12334;SDS011;6233;51.560;9.986;2023-06-19T12:53:58;8.83;;;8.13;;
12334;SDS011;6233;51.560;9.986;2023-06-19T12:56:59;9.37;;;8.53;;
12334;SDS011;6233;51.560;9.986;2023-06-19T13:00:01;9.63;;;8.87;;
12334;SDS011;6233;51.560;9.986;2023-06-19T13:03:06;9.73;;;8.83;;
12334;SDS011;6233;51.560;9.986;2023-06-19T13:06:08;10.17;;;9.23;;
12334;SDS011;6233;51.560;9.986;2023-06-19T13:09:10;8.80;;;8.10;;
12334;SDS011;6233;51.560;9.986;2023-06-19T13:12:11;9.17;;;8.47;;
12334;SDS011;6233;51.560;9.986;2023-06-19T13:15:13;9.00;;;8.23;;
12334;SDS011;6233;51.560;9.986;2023-06-19T13:18:16;8.90;;;8.00;;
12334;SDS011;6233;51.560;9.986;2023-06-19T13:21:19;11.03;;;10.03;;
12334;SDS011;6233;51.560;9.986;2023-06-19T13:24:21;9.57;;;8.70;;
12334;SDS011;6233;51.560;9.986;2023-06-19T13:27:23;10.90;;;9.90;;
12334;SDS011;6233;51.560;9.986;2023-06-19T13:30:25;9.00;;;8.10;;
12334;SDS011;6233;51.560;9.986;2023-06-19T13:33:27;9.70;;;8.87;;
12334;SDS011;6233;51.560;9.986;2023-06-19T13:36:29;9.57;;;8.70;;
12334;SDS011;6233;51.560;9.986;2023-06-19T13:39:31;9.13;;;8.23;;
12334;SDS011;6233;51.560;9.986;2023-06-19T13:42:33;10.47;;;9.57;;
12334;SDS011;6233;51.560;9.986;2023-06-19T13:45:36;10.03;;;9.13;;
12334;SDS011;6233;51.560;9.986;2023-06-19T13:48:39;8.37;;;7.67;;
12334;SDS011;6233;51.560;9.986;2023-06-19T13:51:41;8.87;;;8.03;;
12334;SDS011;6233;51.560;9.986;2023-06-19T13:58:09;8.77;;;7.77;;
12334;SDS011;6233;51.560;9.986;2023-06-19T14:01:10;8.93;;;8.17;;
12334;SDS011;6233;51.560;9.986;2023-06-19T14:04:23;8.43;;;7.73;;
12334;SDS011;6233;51.560;9.986;2023-06-19T14:07:24;8.43;;;7.67;;
12334;SDS011;6233;51.560;9.986;2023-06-19T14:10:27;8.20;;;7.50;;
12334;SDS011;6233;51.560;9.986;2023-06-19T14:13:29;9.43;;;8.63;;
12334;SDS011;6233;51.560;9.986;2023-06-19T14:16:31;8.30;;;7.70;;
12334;SDS011;6233;51.560;9.986;2023-06-19T14:19:33;8.40;;;7.60;;
12334;SDS011;6233;51.560;9.986;2023-06-19T14:22:35;8.63;;;6.90;;
12334;SDS011;6233;51.560;9.986;2023-06-19T14:25:37;8.97;;;8.27;;
12334;SDS011;6233;51.560;9.986;2023-06-19T14:28:43;8.97;;;8.07;;
12334;SDS011;6233;51.560;9.986;2023-06-19T14:31:45;8.80;;;8.03;;
12334;SDS011;6233;51.560;9.986;2023-06-19T14:34:47;9.40;;;8.57;;
12334;SDS011;6233;51.560;9.986;2023-06-19T14:37:49;7.70;;;7.10;;
12334;SDS011;6233;51.560;9.986;2023-06-19T14:40:51;8.30;;;7.60;;
12334;SDS011;6233;51.560;9.986;2023-06-19T14:43:52;9.87;;;8.87;;
12334;SDS011;6233;51.560;9.986;2023-06-19T14:46:54;8.37;;;7.67;;
12334;SDS011;6233;51.560;9.986;2023-06-19T14:53:40;7.87;;;7.10;;
12334;SDS011;6233;51.560;9.986;2023-06-19T14:56:41;7.73;;;7.13;;
12334;SDS011;6233;51.560;9.986;2023-06-19T14:59:43;7.67;;;6.97;;
12334;SDS011;6233;51.560;9.986;2023-06-19T15:02:45;8.17;;;7.47;;
12334;SDS011;6233;51.560;9.986;2023-06-19T15:05:47;7.27;;;6.57;;
12334;SDS011;6233;51.560;9.986;2023-06-19T15:08:48;7.90;;;7.20;;
12334;SDS011;6233;51.560;9.986;2023-06-19T15:11:50;7.87;;;7.17;;
12334;SDS011;6233;51.560;9.986;2023-06-19T15:14:52;7.37;;;6.77;;
12334;SDS011;6233;51.560;9.986;2023-06-19T15:17:54;7.20;;;6.60;;
12334;SDS011;6233;51.560;9.986;2023-06-19T15:20:56;6.93;;;6.43;;
12334;SDS011;6233;51.560;9.986;2023-06-19T15:23:57;7.40;;;6.70;;
12334;SDS011;6233;51.560;9.986;2023-06-19T15:26:59;7.77;;;6.97;;
12334;SDS011;6233;51.560;9.986;2023-06-19T15:30:02;6.53;;;6.03;;
12334;SDS011;6233;51.560;9.986;2023-06-19T15:33:05;7.17;;;6.57;;
12334;SDS011;6233;51.560;9.986;2023-06-19T15:36:06;6.70;;;6.20;;
12334;SDS011;6233;51.560;9.986;2023-06-19T15:39:09;5.97;;;5.53;;
12334;SDS011;6233;51.560;9.986;2023-06-19T15:42:11;6.80;;;6.10;;
12334;SDS011;6233;51.560;9.986;2023-06-19T15:45:12;6.83;;;6.23;;
12334;SDS011;6233;51.560;9.986;2023-06-19T15:48:15;6.27;;;5.73;;
12334;SDS011;6233;51.560;9.986;2023-06-19T15:51:17;7.03;;;6.33;;
12334;SDS011;6233;51.560;9.986;2023-06-19T15:54:19;6.13;;;5.63;;
12334;SDS011;6233;51.560;9.986;2023-06-19T15:57:20;6.87;;;6.37;;
12334;SDS011;6233;51.560;9.986;2023-06-19T16:00:23;7.00;;;6.40;;
12334;SDS011;6233;51.560;9.986;2023-06-19T16:03:26;7.07;;;6.47;;
12334;SDS011;6233;51.560;9.986;2023-06-19T16:06:29;7.07;;;6.53;;
12334;SDS011;6233;51.560;9.986;2023-06-19T16:09:31;6.53;;;6.00;;
12334;SDS011;6233;51.560;9.986;2023-06-19T16:12:50;6.87;;;6.27;;
12334;SDS011;6233;51.560;9.986;2023-06-19T16:15:52;6.63;;;6.10;;
12334;SDS011;6233;51.560;9.986;2023-06-19T16:18:54;7.20;;;6.60;;
12334;SDS011;6233;51.560;9.986;2023-06-19T16:21:56;6.13;;;5.63;;
12334;SDS011;6233;51.560;9.986;2023-06-19T16:25:00;6.60;;;6.10;;
12334;SDS011;6233;51.560;9.986;2023-06-19T16:28:02;5.93;;;5.43;;
12334;SDS011;6233;51.560;9.986;2023-06-19T16:31:04;5.40;;;5.00;;
12334;SDS011;6233;51.560;9.986;2023-06-19T16:34:08;5.80;;;5.27;;
12334;SDS011;6233;51.560;9.986;2023-06-19T16:37:10;5.27;;;4.77;;
12334;SDS011;6233;51.560;9.986;2023-06-19T16:40:12;4.60;;;4.20;;
12334;SDS011;6233;51.560;9.986;2023-06-19T16:43:13;5.00;;;4.60;;
12334;SDS011;6233;51.560;9.986;2023-06-19T16:46:15;4.73;;;4.30;;
12334;SDS011;6233;51.560;9.986;2023-06-19T16:49:17;4.50;;;4.10;;
12334;SDS011;6233;51.560;9.986;2023-06-19T16:52:20;4.60;;;4.30;;
12334;SDS011;6233;51.560;9.986;2023-06-19T16:55:23;4.33;;;4.03;;
12334;SDS011;6233;51.560;9.986;2023-06-19T16:58:25;4.73;;;4.33;;
12334;SDS011;6233;51.560;9.986;2023-06-19T17:01:27;4.80;;;4.33;;
12334;SDS011;6233;51.560;9.986;2023-06-19T17:04:29;5.00;;;4.30;;
12334;SDS011;6233;51.560;9.986;2023-06-19T17:07:30;4.40;;;4.03;;
12334;SDS011;6233;51.560;9.986;2023-06-19T17:10:32;4.70;;;4.30;;
12334;SDS011;6233;51.560;9.986;2023-06-19T17:13:35;4.77;;;4.40;;
12334;SDS011;6233;51.560;9.986;2023-06-19T17:16:36;4.80;;;4.40;;
12334;SDS011;6233;51.560;9.986;2023-06-19T17:19:38;4.97;;;4.47;;
12334;SDS011;6233;51.560;9.986;2023-06-19T17:22:40;4.60;;;4.20;;
12334;SDS011;6233;51.560;9.986;2023-06-19T17:25:42;5.80;;;5.30;;
12334;SDS011;6233;51.560;9.986;2023-06-19T17:28:44;5.73;;;5.23;;
12334;SDS011;6233;51.560;9.986;2023-06-19T17:31:46;4.83;;;4.50;;
12334;SDS011;6233;51.560;9.986;2023-06-19T17:34:48;4.87;;;4.47;;
12334;SDS011;6233;51.560;9.986;2023-06-19T17:37:49;5.37;;;4.90;;
12334;SDS011;6233;51.560;9.986;2023-06-19T17:40:51;5.87;;;5.37;;
12334;SDS011;6233;51.560;9.986;2023-06-19T17:43:54;5.10;;;4.60;;
12334;SDS011;6233;51.560;9.986;2023-06-19T17:46:55;4.77;;;4.23;;
12334;SDS011;6233;51.560;9.986;2023-06-19T17:49:57;4.33;;;4.00;;
12334;SDS011;6233;51.560;9.986;2023-06-19T17:52:59;5.00;;;4.57;;
12334;SDS011;6233;51.560;9.986;2023-06-19T17:56:01;5.80;;;5.30;;
12334;SDS011;6233;51.560;9.986;2023-06-19T17:59:05;5.50;;;5.00;;
12334;SDS011;6233;51.560;9.986;2023-06-19T18:02:07;4.50;;;4.10;;
12334;SDS011;6233;51.560;9.986;2023-06-19T18:08:36;4.30;;;3.90;;
12334;SDS011;6233;51.560;9.986;2023-06-19T18:11:38;4.67;;;4.37;;
12334;SDS011;6233;51.560;9.986;2023-06-19T18:14:40;3.93;;;3.63;;
12334;SDS011;6233;51.560;9.986;2023-06-19T18:17:42;4.10;;;3.80;;
12334;SDS011;6233;51.560;9.986;2023-06-19T18:20:44;4.23;;;3.87;;
12334;SDS011;6233;51.560;9.986;2023-06-19T18:23:46;5.07;;;4.20;;
12334;SDS011;6233;51.560;9.986;2023-06-19T18:26:50;4.37;;;4.07;;
12334;SDS011;6233;51.560;9.986;2023-06-19T18:29:52;4.37;;;3.70;;
12334;SDS011;6233;51.560;9.986;2023-06-19T18:32:53;3.90;;;3.60;;
12334;SDS011;6233;51.560;9.986;2023-06-19T18:39:19;3.73;;;3.43;;
12334;SDS011;6233;51.560;9.986;2023-06-19T18:42:21;6.10;;;5.60;;
12334;SDS011;6233;51.560;9.986;2023-06-19T18:45:24;4.20;;;3.90;;
12334;SDS011;6233;51.560;9.986;2023-06-19T18:48:26;8.10;;;7.30;;
12334;SDS011;6233;51.560;9.986;2023-06-19T18:51:29;4.73;;;4.33;;
12334;SDS011;6233;51.560;9.986;2023-06-19T18:54:30;3.87;;;3.60;;
12334;SDS011;6233;51.560;9.986;2023-06-19T18:57:32;5.67;;;5.17;;
12334;SDS011;6233;51.560;9.986;2023-06-19T19:00:34;9.73;;;8.83;;
12334;SDS011;6233;51.560;9.986;2023-06-19T19:03:36;8.67;;;7.87;;
12334;SDS011;6233;51.560;9.986;2023-06-19T19:06:38;11.43;;;10.23;;
12334;SDS011;6233;51.560;9.986;2023-06-19T19:09:46;10.13;;;8.57;;
12334;SDS011;6233;51.560;9.986;2023-06-19T19:12:48;6.23;;;5.67;;